Buenos Aires, Argentina

4:48 AM ART en Julio 29, 2016 (GMT -0300)
Sevilla | | Change Station

Alt 26 ft 34.58 °S, 58.40 °W | Updated 2 minutes ago

Clear
Despejado
46.0 ° F
Sensación térmica 46 ° F
N
1.9
Viento Variable Viento desde SE
Gusts 5.6 mph

Hoy
Alta -- | Baja -- ° F
--% Posibilidad de precipitaciones
Ayer
Alta -- | Baja -- ° F
Precip. -- pul
Presión 30.27 pul
Visibilidad -9999.0 Millas
Nubes
Vientos helados 46 ° F
Punto de rocío 42 ° F
Humedad 86%
Precipitaciones 0.00 pul
Espesor de la nieve No disponible.
7:49 AM 6:11 PM
Creciente menguante, 24% visible
METAR SABE 290700Z 05009KT CAVOK 10/06 Q1025
Presión 30.27 pul
Visibilidad -9999.0 Millas
Nubes
Vientos helados 46 ° F
Punto de rocío 42 ° F
Humedad 86%
Precipitaciones 0.00 pul
Espesor de la nieve No disponible.
7:49 AM 6:11 PM
Creciente menguante, 24% visible
METAR SABE 290700Z 05009KT CAVOK 10/06 Q1025

10-Day Weather Forecast

No radar image for this location.
×

Almanac

Astronomía

Jul. 29, 2016 Salida Puesta
Hora real
Crepúsculo civil
Crepúsculo náutico
Crepúsculo astronómico
Luna
Horas de luz
Horas de luz
Tomorrow will be .
, % of the Moon is Illuminated

Extremos de hoy

Máximos del país Bajas del país

Community

WunderPhotos

Upload Photos

1,928,300 ¡fotos cargadas!

WunderBlog® & News

Nearby

Calidad del aire

  Calidad del aire Índice AQ Contaminante
Not available.

Grosos de nieve

Estación Profundido Altura

Actividad de terremotos

Ciudad Distance Mag. Tiempo y dato
Magnitud mínima muestra es 2,5.

Temperaturas de aguas costeras

Lugar Temperatura

Stations

Estaciones meteorológicas cercanas

Ubicación de la estación Temp. Vientos helados Punto de rocío Humedad Viento Precip. Alt Actualizado Tipo